Time;durP1;ratioP1;P1;durP2;ratioP2;P2;SDS_P1;SDS_P2;PMS_P1;PMS_P2;Temp;Humidity;BMP_temperature;BMP_pressure;BME280_temperature;BME280_humidity;BME280_pressure;Samples;Min_cycle;Max_cycle;Signal;HPM_P1;HPM_P2
2021/10/30 00:02:52;;;;;;;42.47;36.37;;;;;;;7.13;74.80;99498.97;5105236;22;20255;-78
2021/10/30 00:05:19;;;;;;;42.70;35.67;;;;;;;6.95;74.31;99495.00;5053713;28;20229;-80
2021/10/30 00:08:12;;;;;;;42.57;37.27;;;;;;;6.95;75.35;99497.66;5047997;23;20214;-79
2021/10/30 00:11:02;;;;;;;40.17;35.33;;;;;;;7.00;75.01;99502.38;5126082;22;20284;-77
2021/10/30 00:13:54;;;;;;;42.13;35.77;;;;;;;6.90;75.28;99481.47;5081206;23;20252;-77
2021/10/30 00:16:25;;;;;;;43.40;36.90;;;;;;;6.95;74.72;99491.53;5175511;22;20202;-78
2021/10/30 00:19:31;;;;;;;44.23;36.33;;;;;;;7.02;75.11;99500.34;5065665;23;20171;-76
2021/10/30 00:22:06;;;;;;;44.27;36.97;;;;;;;6.93;75.00;99496.22;5088197;23;20248;-77
2021/10/30 00:25:01;;;;;;;44.13;36.70;;;;;;;6.86;74.86;99500.72;5115474;23;20215;-76
2021/10/30 00:27:44;;;;;;;45.10;37.87;;;;;;;6.79;76.18;99489.19;5030465;22;20282;-77
2021/10/30 00:30:19;;;;;;;45.37;38.57;;;;;;;6.75;75.73;99491.44;5065421;23;20240;-78
2021/10/30 00:33:01;;;;;;;43.87;37.43;;;;;;;6.54;76.63;99484.38;5076331;28;20161;-78
2021/10/30 00:35:31;;;;;;;43.73;37.83;;;;;;;6.72;76.02;99491.03;5090844;23;20231;-77
2021/10/30 00:38:14;;;;;;;45.77;38.77;;;;;;;6.62;76.06;99484.19;5095350;28;20265;-78
2021/10/30 00:40:46;;;;;;;45.27;38.13;;;;;;;6.55;77.31;99485.19;5110121;22;20224;-77
2021/10/30 00:43:51;;;;;;;46.63;38.33;;;;;;;6.52;77.51;99488.25;5105876;22;20296;-77
2021/10/30 00:47:01;;;;;;;46.37;38.40;;;;;;;6.55;76.48;99483.34;5182452;22;20240;-77
2021/10/30 00:50:01;;;;;;;46.43;37.93;;;;;;;6.51;76.74;99486.59;5091834;23;20228;-78
2021/10/30 00:52:30;;;;;;;47.73;38.53;;;;;;;6.52;76.62;99482.94;5103259;23;20247;-77
2021/10/30 00:54:59;;;;;;;46.53;39.57;;;;;;;6.48;76.88;99482.50;5165941;23;20229;-77
2021/10/30 00:57:30;;;;;;;48.87;40.30;;;;;;;6.42;77.11;99482.47;5083744;23;20232;-77
2021/10/30 01:00:18;;;;;;;46.27;38.97;;;;;;;6.39;77.55;99481.00;5061644;28;20197;-78
2021/10/30 01:03:21;;;;;;;50.77;40.30;;;;;;;6.40;77.34;99472.00;5106854;22;20244;-77
2021/10/30 01:05:51;;;;;;;46.27;39.07;;;;;;;6.49;76.82;99478.81;5074480;23;20237;-77
2021/10/30 01:08:38;;;;;;;48.40;39.67;;;;;;;6.39;77.82;99478.34;5123377;22;20337;-77
2021/10/30 01:11:06;;;;;;;49.30;39.63;;;;;;;6.36;77.22;99464.63;5132549;22;20226;-77
2021/10/30 01:14:21;;;;;;;47.17;39.87;;;;;;;6.32;78.56;99466.84;5105093;23;20211;-77
2021/10/30 01:17:13;;;;;;;49.10;39.10;;;;;;;6.46;77.74;99465.91;5110129;23;20214;-77
2021/10/30 01:20:29;;;;;;;51.93;39.30;;;;;;;6.39;77.70;99459.72;5125019;22;20232;-77
2021/10/30 01:23:05;;;;;;;48.63;40.73;;;;;;;6.30;77.93;99462.75;5123833;22;20233;-77
2021/10/30 01:25:47;;;;;;;49.50;40.00;;;;;;;6.38;77.08;99449.28;5086591;28;20202;-78
2021/10/30 01:28:43;;;;;;;47.97;39.53;;;;;;;6.29;77.31;99461.94;5125064;22;20228;-77
2021/10/30 01:34:45;;;;;;;49.23;39.63;;;;;;;6.39;77.61;99461.59;5096543;28;20224;-78
2021/10/30 01:43:25;;;;;;;50.57;41.33;;;;;;;6.26;77.79;99421.56;5245796;22;20257;-78
2021/10/30 01:46:06;;;;;;;48.83;40.23;;;;;;;6.32;78.55;99439.41;5072290;28;20155;-77
2021/10/30 01:49:05;;;;;;;46.50;40.23;;;;;;;6.32;77.78;99439.41;5044397;23;20228;-77
2021/10/30 01:51:34;;;;;;;48.80;40.53;;;;;;;6.05;78.83;99419.84;5117278;22;20315;-77
2021/10/30 01:57:22;;;;;;;51.37;42.77;;;;;;;6.07;78.82;99447.03;5104057;22;20305;-77
2021/10/30 01:59:55;;;;;;;50.67;40.13;;;;;;;6.20;78.56;99436.50;5084281;22;20290;-77
2021/10/30 02:03:17;;;;;;;48.57;41.50;;;;;;;5.99;78.93;99449.84;5197148;22;20283;-77
2021/10/30 02:05:48;;;;;;;51.23;41.27;;;;;;;6.11;78.70;99450.97;5087588;23;20232;-77
2021/10/30 02:08:16;;;;;;;52.47;42.27;;;;;;;6.08;78.40;99446.03;5083517;23;20263;-77
2021/10/30 02:10:50;;;;;;;49.83;41.30;;;;;;;5.94;78.82;99458.41;5083509;22;20220;-77
2021/10/30 02:13:24;;;;;;;48.90;41.67;;;;;;;5.98;79.07;99449.03;5095004;28;20188;-78
2021/10/30 02:16:01;;;;;;;48.50;40.43;;;;;;;5.91;78.87;99445.53;5062839;22;20254;-78
2021/10/30 02:18:55;;;;;;;49.77;41.53;;;;;;;5.88;78.82;99431.81;5100249;22;20244;-77
2021/10/30 02:21:26;;;;;;;52.83;43.63;;;;;;;5.91;78.87;99447.34;5075797;28;20241;-77
2021/10/30 02:23:56;;;;;;;52.60;42.23;;;;;;;5.70;80.04;99434.88;5059718;28;20296;-78
2021/10/30 02:26:32;;;;;;;53.53;43.50;;;;;;;5.82;80.06;99432.53;5061062;22;20218;-78
2021/10/30 02:28:59;;;;;;;50.83;41.73;;;;;;;5.90;79.47;99425.25;5014523;28;20210;-78
2021/10/30 02:31:26;;;;;;;50.83;42.90;;;;;;;5.82;80.02;99422.72;5017336;28;20214;-78
2021/10/30 02:33:54;;;;;;;51.90;42.17;;;;;;;5.80;80.00;99414.13;5018399;28;20351;-78
2021/10/30 02:36:22;;;;;;;52.60;42.03;;;;;;;5.90;78.95;99422.59;5137308;23;20227;-77
2021/10/30 02:39:05;;;;;;;50.10;40.40;;;;;;;5.97;79.36;99426.09;5026318;28;20253;-78
2021/10/30 02:41:36;;;;;;;52.17;42.33;;;;;;;5.83;79.56;99416.41;5069284;23;20228;-78
2021/10/30 02:44:03;;;;;;;52.43;44.03;;;;;;;5.83;79.81;99420.91;5067280;23;20229;-77
2021/10/30 02:46:31;;;;;;;56.97;44.10;;;;;;;5.80;79.33;99400.81;5052696;28;20289;-78
2021/10/30 02:48:59;;;;;;;52.47;42.20;;;;;;;5.78;80.08;99414.28;5066429;28;20263;-78
2021/10/30 02:51:26;;;;;;;53.70;43.63;;;;;;;5.70;80.30;99414.44;5068933;28;20248;-78
2021/10/30 02:53:53;;;;;;;52.97;43.07;;;;;;;5.61;80.85;99412.94;5160125;22;20200;-78
2021/10/30 02:56:20;;;;;;;54.80;44.50;;;;;;;5.54;80.35;99412.09;5087210;22;20221;-78
2021/10/30 02:58:48;;;;;;;54.60;44.37;;;;;;;5.56;80.59;99406.56;5050589;28;20217;-78
2021/10/30 03:01:17;;;;;;;54.70;43.47;;;;;;;5.47;80.85;99400.56;5068014;28;20237;-77
2021/10/30 03:03:45;;;;;;;56.70;45.03;;;;;;;5.51;81.10;99412.47;5069208;28;20255;-78
2021/10/30 03:06:11;;;;;;;56.23;45.17;;;;;;;5.43;80.98;99399.31;5066316;28;20233;-77
2021/10/30 03:08:40;;;;;;;54.13;44.10;;;;;;;5.55;81.28;99418.22;5077074;22;20223;-78
2021/10/30 03:11:11;;;;;;;54.27;44.97;;;;;;;5.37;81.60;99408.03;5033514;28;20264;-78
2021/10/30 03:13:41;;;;;;;54.30;45.20;;;;;;;5.37;81.20;99412.53;5066924;28;20237;-78
2021/10/30 03:16:08;;;;;;;53.90;44.43;;;;;;;5.23;81.75;99411.59;5068809;28;20578;-78
2021/10/30 03:18:35;;;;;;;52.67;43.60;;;;;;;5.33;82.05;99394.34;5076026;22;20237;-78
2021/10/30 03:21:01;;;;;;;54.53;44.23;;;;;;;5.40;81.66;99397.06;5049274;28;20247;-78
2021/10/30 03:23:29;;;;;;;57.93;45.53;;;;;;;5.26;81.19;99384.69;5065640;22;20244;-77
2021/10/30 03:26:01;;;;;;;54.23;44.07;;;;;;;5.24;81.70;99402.63;5047432;28;20253;-78
2021/10/30 03:28:29;;;;;;;52.17;43.47;;;;;;;5.33;81.99;99399.66;5056565;23;20230;-78
2021/10/30 03:30:59;;;;;;;56.30;45.57;;;;;;;5.27;81.75;99402.25;5090637;22;20229;-77
2021/10/30 03:33:34;;;;;;;58.10;45.77;;;;;;;5.18;81.76;99396.22;5083037;23;20234;-78
2021/10/30 03:36:04;;;;;;;55.57;45.70;;;;;;;5.13;82.01;99400.50;5071380;28;20229;-78
2021/10/30 03:38:31;;;;;;;55.27;45.10;;;;;;;5.21;82.26;99403.84;5098739;22;20231;-77
2021/10/30 03:41:04;;;;;;;57.23;45.40;;;;;;;5.18;82.10;99401.53;5078462;23;20227;-77
2021/10/30 03:43:32;;;;;;;54.77;45.83;;;;;;;4.99;82.28;99388.09;5053039;28;20581;-78
2021/10/30 03:46:01;;;;;;;56.13;45.70;;;;;;;4.95;82.85;99392.94;5072108;28;20233;-78
2021/10/30 03:48:32;;;;;;;56.80;46.30;;;;;;;5.03;82.31;99399.97;5069272;28;20228;-78
2021/10/30 03:51:02;;;;;;;56.63;46.83;;;;;;;4.82;82.63;99380.38;5003829;28;20212;-78
2021/10/30 03:53:33;;;;;;;60.27;48.67;;;;;;;4.94;83.58;99399.28;4988400;28;20236;-77
2021/10/30 03:56:01;;;;;;;60.30;47.23;;;;;;;4.94;83.17;99399.28;4987856;28;20304;-78
2021/10/30 03:58:35;;;;;;;61.00;47.17;;;;;;;4.88;82.80;99382.28;4990621;28;20219;-77
2021/10/30 04:01:02;;;;;;;59.43;46.93;;;;;;;4.86;83.03;99384.28;4972221;28;20236;-78
2021/10/30 04:03:31;;;;;;;60.77;47.17;;;;;;;4.96;83.09;99376.00;5068504;23;20277;-77
2021/10/30 04:06:02;;;;;;;57.83;46.27;;;;;;;4.97;83.70;99377.66;5067230;28;20224;-78
2021/10/30 04:08:30;;;;;;;62.70;48.90;;;;;;;4.92;82.92;99366.78;5053091;28;20181;-77
2021/10/30 04:11:02;;;;;;;59.03;47.87;;;;;;;4.92;83.49;99360.66;5069504;28;20239;-78
2021/10/30 04:13:29;;;;;;;62.07;47.87;;;;;;;5.13;83.39;99342.06;5068060;28;20241;-78
2021/10/30 04:16:00;;;;;;;63.70;48.03;;;;;;;5.31;83.97;99358.34;5069106;28;20250;-77
2021/10/30 04:18:27;;;;;;;63.73;48.13;;;;;;;5.38;83.22;99353.09;5052286;28;20189;-78
2021/10/30 04:20:58;;;;;;;59.97;48.47;;;;;;;5.43;83.04;99361.31;5068954;28;20237;-78
2021/10/30 04:23:30;;;;;;;60.87;47.23;;;;;;;5.48;82.75;99353.56;5067854;28;20229;-78
2021/10/30 04:26:05;;;;;;;59.10;46.73;;;;;;;5.67;82.41;99355.53;5065969;28;20205;-78
2021/10/30 04:28:36;;;;;;;62.87;47.97;;;;;;;5.60;82.51;99352.03;5051010;28;20311;-77
2021/10/30 04:31:07;;;;;;;60.37;48.07;;;;;;;5.70;82.72;99350.66;5065763;28;20252;-77
2021/10/30 04:33:43;;;;;;;62.90;47.77;;;;;;;5.68;81.75;99346.56;5052976;28;20251;-77
2021/10/30 04:36:17;;;;;;;62.77;48.50;;;;;;;5.66;82.34;99348.59;5050937;28;20229;-77
2021/10/30 04:39:02;;;;;;;62.20;48.87;;;;;;;5.66;81.63;99359.22;5052918;28;20243;-77
2021/10/30 04:41:30;;;;;;;61.37;48.53;;;;;;;5.60;82.11;99365.31;5067935;28;20267;-77
2021/10/30 04:43:57;;;;;;;56.73;47.83;;;;;;;5.46;82.19;99369.69;5065819;28;20308;-78
2021/10/30 04:46:27;;;;;;;61.87;49.37;;;;;;;5.39;82.74;99376.81;5066752;28;20237;-78
2021/10/30 04:48:53;;;;;;;58.83;47.60;;;;;;;5.35;82.66;99372.06;5057988;23;20217;-77
2021/10/30 04:51:25;;;;;;;60.50;48.90;;;;;;;5.34;82.69;99379.22;5087452;28;20248;-77
2021/10/30 04:53:56;;;;;;;57.90;48.20;;;;;;;5.28;82.88;99378.16;5102223;23;20228;-77
2021/10/30 04:56:23;;;;;;;57.80;46.60;;;;;;;5.25;83.08;99370.56;5087889;28;20224;-77
2021/10/30 04:58:51;;;;;;;56.27;46.10;;;;;;;5.17;83.08;99370.72;5106449;23;20238;-77
2021/10/30 05:01:18;;;;;;;59.97;47.73;;;;;;;5.08;83.50;99369.19;5090895;28;20312;-77
2021/10/30 05:03:54;;;;;;;57.33;45.57;;;;;;;4.97;83.03;99379.50;5138435;22;20231;-77
2021/10/30 05:06:42;;;;;;;59.37;48.10;;;;;;;4.94;83.33;99379.88;5090222;28;20291;-77
2021/10/30 05:09:24;;;;;;;55.50;45.40;;;;;;;4.84;83.08;99374.88;5093402;28;20228;-77
2021/10/30 05:11:58;;;;;;;56.30;46.53;;;;;;;4.67;83.35;99368.16;5124754;22;20250;-77
2021/10/30 05:14:36;;;;;;;60.20;46.90;;;;;;;4.65;83.05;99378.97;5110198;28;20204;-77
2021/10/30 05:17:11;;;;;;;54.00;45.87;;;;;;;4.62;83.08;99383.84;5091074;28;20495;-78
2021/10/30 05:19:42;;;;;;;56.50;46.07;;;;;;;4.55;83.44;99386.41;5107179;28;20238;-77
2021/10/30 05:22:09;;;;;;;55.23;44.53;;;;;;;4.42;83.30;99388.91;5104886;28;20569;-77
2021/10/30 05:24:40;;;;;;;58.27;46.03;;;;;;;4.34;83.36;99375.72;5108697;28;20215;-77
2021/10/30 05:27:10;;;;;;;54.50;46.10;;;;;;;4.23;83.09;99370.91;5110447;28;20586;-78
2021/10/30 05:29:39;;;;;;;54.27;44.87;;;;;;;4.19;82.88;99367.81;5178832;22;20529;-77
2021/10/30 05:32:08;;;;;;;58.93;45.73;;;;;;;4.10;82.88;99376.06;5076100;28;20278;-77
2021/10/30 05:34:56;;;;;;;55.10;44.70;;;;;;;4.02;83.21;99378.78;5077786;28;20224;-77
2021/10/30 05:37:47;;;;;;;54.40;45.17;;;;;;;3.96;83.17;99381.19;5098768;22;20231;-77
2021/10/30 05:40:24;;;;;;;59.70;46.30;;;;;;;3.91;83.16;99370.31;5098496;22;20239;-78
2021/10/30 05:42:52;;;;;;;59.07;46.30;;;;;;;3.85;83.53;99365.75;5091682;28;20244;-77
2021/10/30 05:45:21;;;;;;;60.17;46.37;;;;;;;3.82;83.61;99368.75;5105079;22;20231;-77
2021/10/30 05:47:53;;;;;;;62.80;47.40;;;;;;;3.83;83.13;99374.84;5112399;28;20266;-77
2021/10/30 05:50:23;;;;;;;58.47;46.30;;;;;;;3.84;83.28;99379.16;5106648;28;20635;-77
2021/10/30 05:52:51;;;;;;;58.00;45.63;;;;;;;3.79;83.46;99385.00;5111377;28;20220;-77
2021/10/30 05:55:21;;;;;;;63.07;47.37;;;;;;;3.85;83.47;99392.25;5109946;28;20188;-78
2021/10/30 05:57:51;;;;;;;62.30;48.20;;;;;;;3.87;83.42;99392.88;5117420;22;20270;-77
2021/10/30 06:00:19;;;;;;;61.00;48.47;;;;;;;3.88;83.46;99397.16;5093170;28;20216;-77
2021/10/30 06:02:49;;;;;;;63.23;47.87;;;;;;;3.90;83.99;99403.13;5091467;28;20231;-77
2021/10/30 06:05:15;;;;;;;65.00;50.23;;;;;;;3.93;83.74;99409.88;5111848;22;20221;-78
2021/10/30 06:07:45;;;;;;;59.97;47.70;;;;;;;3.97;84.01;99400.53;5072725;28;20193;-77
2021/10/30 06:10:22;;;;;;;61.27;47.27;;;;;;;4.09;83.97;99398.28;5117385;23;20228;-77
2021/10/30 06:12:51;;;;;;;67.30;50.97;;;;;;;4.11;83.88;99394.41;5075237;28;20215;-77
2021/10/30 06:15:18;;;;;;;63.10;49.63;;;;;;;4.23;83.98;99411.53;5109150;28;20322;-77
2021/10/30 06:17:45;;;;;;;67.17;51.07;;;;;;;4.28;83.77;99403.84;5092738;28;20291;-77
2021/10/30 06:20:12;;;;;;;62.47;48.73;;;;;;;4.34;84.04;99413.69;5107053;28;20227;-77
2021/10/30 06:22:42;;;;;;;63.30;49.57;;;;;;;4.46;84.03;99414.06;5113029;22;20227;-77
2021/10/30 06:25:12;;;;;;;66.07;49.93;;;;;;;4.55;83.23;99414.78;5093495;28;20711;-78
2021/10/30 06:27:39;;;;;;;67.37;49.67;;;;;;;4.62;83.94;99418.34;5107933;28;20289;-77
2021/10/30 06:30:09;;;;;;;68.07;51.30;;;;;;;4.73;83.80;99423.16;5089764;28;20251;-77
2021/10/30 06:32:38;;;;;;;65.83;51.07;;;;;;;4.82;83.84;99417.53;5096119;23;20277;-77
2021/10/30 06:35:06;;;;;;;66.50;51.03;;;;;;;4.96;83.68;99415.00;5089758;28;20189;-77
2021/10/30 06:37:40;;;;;;;65.80;52.00;;;;;;;5.06;83.65;99420.84;5090071;28;20263;-77
2021/10/30 06:40:11;;;;;;;67.70;51.27;;;;;;;5.16;83.01;99424.00;5090376;28;20223;-77
2021/10/30 06:42:41;;;;;;;66.97;52.47;;;;;;;5.22;83.42;99417.94;5106522;28;20220;-77
2021/10/30 06:45:16;;;;;;;63.00;50.20;;;;;;;5.36;82.99;99430.34;5108303;28;20216;-77
2021/10/30 06:47:48;;;;;;;64.87;50.10;;;;;;;5.45;83.00;99431.03;5115972;22;20535;-77
2021/10/30 06:50:21;;;;;;;66.80;52.00;;;;;;;5.51;82.36;99430.22;5116101;22;20227;-77
2021/10/30 06:52:55;;;;;;;65.53;51.57;;;;;;;5.59;82.58;99420.31;5075341;23;20288;-77
2021/10/30 06:55:26;;;;;;;61.93;49.90;;;;;;;5.69;82.13;99414.66;5090811;28;20212;-78
2021/10/30 06:57:56;;;;;;;62.37;49.67;;;;;;;5.71;81.87;99401.97;5071787;28;20220;-77
2021/10/30 07:00:23;;;;;;;62.67;49.07;;;;;;;5.91;81.47;99415.44;5087821;28;20224;-77
2021/10/30 07:02:52;;;;;;;62.47;50.03;;;;;;;5.99;81.95;99409.97;5087537;28;20217;-77
2021/10/30 07:05:21;;;;;;;59.47;49.20;;;;;;;6.10;81.42;99422.72;5088439;28;20229;-78
2021/10/30 07:07:48;;;;;;;65.20;50.13;;;;;;;6.17;81.19;99410.28;5089196;23;20238;-78
2021/10/30 07:10:18;;;;;;;64.00;50.30;;;;;;;6.30;81.12;99418.31;5090458;28;20228;-77
2021/10/30 07:12:45;;;;;;;61.87;49.97;;;;;;;6.42;81.00;99419.41;5109401;28;20243;-77
2021/10/30 07:15:35;;;;;;;55.97;46.20;;;;;;;6.57;80.63;99427.28;5108077;28;20224;-78
2021/10/30 07:18:04;;;;;;;59.10;47.63;;;;;;;6.68;80.25;99418.69;5109110;28;20223;-78
2021/10/30 07:20:31;;;;;;;59.93;48.13;;;;;;;6.72;79.55;99405.81;5107753;28;20259;-78
2021/10/30 07:23:04;;;;;;;60.23;48.43;;;;;;;6.91;79.24;99413.84;5106797;28;20243;-77
2021/10/30 07:25:34;;;;;;;59.40;47.23;;;;;;;7.06;79.24;99427.81;5114399;22;20508;-77
2021/10/30 07:28:01;;;;;;;59.27;49.77;;;;;;;7.17;79.02;99417.59;5088531;28;20257;-77
2021/10/30 07:30:31;;;;;;;57.53;48.57;;;;;;;7.21;78.85;99403.66;5089513;28;20234;-77
2021/10/30 07:33:01;;;;;;;58.27;48.07;;;;;;;7.43;78.61;99423.78;5089680;28;20220;-77
2021/10/30 07:35:29;;;;;;;55.50;46.73;;;;;;;7.60;78.86;99415.38;5088750;28;20247;-77
2021/10/30 07:38:00;;;;;;;51.90;43.47;;;;;;;7.89;77.91;99412.25;5070154;28;20208;-78
2021/10/30 07:40:35;;;;;;;50.83;43.03;;;;;;;8.17;77.18;99428.00;5104901;28;20230;-77
2021/10/30 07:43:15;;;;;;;49.80;42.87;;;;;;;8.50;74.93;99420.75;5105608;28;20235;-78
2021/10/30 07:45:45;;;;;;;47.87;40.67;;;;;;;8.63;73.95;99425.25;5102230;28;20212;-78
2021/10/30 07:48:13;;;;;;;44.73;39.60;;;;;;;8.71;73.27;99415.16;5103021;28;20719;-80
2021/10/30 07:50:40;;;;;;;46.67;39.87;;;;;;;8.88;72.46;99417.31;5093190;28;20224;-80
2021/10/30 07:53:07;;;;;;;48.57;39.60;;;;;;;8.99;72.40;99408.63;5106177;28;20237;-80
2021/10/30 07:55:35;;;;;;;44.07;38.67;;;;;;;9.08;71.18;99407.34;5071120;28;20292;-80
2021/10/30 07:58:03;;;;;;;41.67;36.80;;;;;;;9.28;69.70;99394.66;5103272;28;20223;-77
2021/10/30 08:00:35;;;;;;;42.37;37.60;;;;;;;9.41;68.95;99389.22;5103611;28;20580;-78
2021/10/30 08:03:03;;;;;;;41.17;36.70;;;;;;;9.49;68.76;99385.44;5070002;28;20236;-77
2021/10/30 08:05:35;;;;;;;41.60;37.10;;;;;;;9.68;68.24;99393.31;5097809;22;20229;-77
2021/10/30 08:08:06;;;;;;;41.03;36.53;;;;;;;9.63;68.54;99390.47;5054013;23;20224;-80
2021/10/30 08:10:35;;;;;;;42.53;37.13;;;;;;;9.59;68.02;99385.78;5043075;23;20253;-78
2021/10/30 08:13:09;;;;;;;42.20;37.57;;;;;;;9.57;67.80;99399.34;5033479;28;20190;-77
2021/10/30 08:15:48;;;;;;;44.30;39.37;;;;;;;9.59;67.30;99394.63;5065587;28;20220;-77
2021/10/30 08:18:18;;;;;;;44.07;38.57;;;;;;;9.73;67.50;99398.81;5062774;28;20317;-77
2021/10/30 08:20:46;;;;;;;42.83;38.17;;;;;;;9.76;67.52;99388.69;5073037;28;20228;-77
2021/10/30 08:23:16;;;;;;;41.93;37.00;;;;;;;9.90;66.48;99382.19;5084353;28;20703;-79
2021/10/30 08:25:51;;;;;;;44.97;38.63;;;;;;;9.93;66.91;99400.50;5052121;28;20293;-77
2021/10/30 08:28:19;;;;;;;41.97;36.83;;;;;;;9.87;67.14;99404.88;5067224;28;20258;-77
2021/10/30 08:30:49;;;;;;;43.37;38.20;;;;;;;9.95;67.10;99401.91;5105935;22;20566;-77
2021/10/30 08:33:17;;;;;;;46.47;39.77;;;;;;;9.99;67.04;99404.94;5070070;28;20244;-78
2021/10/30 08:35:44;;;;;;;44.97;38.63;;;;;;;10.04;66.65;99405.09;5068156;28;20211;-78
2021/10/30 08:38:13;;;;;;;43.97;38.33;;;;;;;10.15;66.49;99394.53;5053342;28;20272;-78
2021/10/30 08:40:41;;;;;;;44.83;38.53;;;;;;;10.34;66.60;99400.69;5070324;28;20626;-78
2021/10/30 08:43:13;;;;;;;46.03;39.33;;;;;;;10.43;66.59;99401.22;5069300;28;20191;-78
2021/10/30 08:45:42;;;;;;;43.83;36.90;;;;;;;10.58;65.83;99390.94;5104221;23;20249;-78
2021/10/30 08:48:14;;;;;;;42.87;36.83;;;;;;;10.53;65.60;99378.22;5069138;28;20250;-78
2021/10/30 08:50:42;;;;;;;41.77;36.70;;;;;;;10.66;65.06;99379.91;5092821;28;20204;-78
2021/10/30 08:53:14;;;;;;;41.00;35.60;;;;;;;10.74;64.84;99384.13;5080305;23;20283;-78
2021/10/30 08:55:40;;;;;;;42.67;36.30;;;;;;;10.76;64.72;99382.03;5061219;23;20221;-78
2021/10/30 08:58:16;;;;;;;42.57;37.13;;;;;;;10.90;64.59;99380.81;5084566;28;20236;-78
2021/10/30 09:01:07;;;;;;;43.10;38.07;;;;;;;10.92;64.49;99386.75;5085811;28;20619;-78
2021/10/30 09:03:35;;;;;;;41.83;36.33;;;;;;;10.93;64.53;99388.41;5110981;22;20291;-77
2021/10/30 09:06:04;;;;;;;41.30;36.60;;;;;;;10.95;64.30;99380.97;5074583;28;20544;-78
2021/10/30 09:08:43;;;;;;;44.20;36.80;;;;;;;11.03;64.02;99391.34;5051136;22;1142170;31
2021/10/30 09:11:10;;;;;;;42.43;36.83;;;;;;;11.15;64.12;99386.84;4949674;29;20264;-78
2021/10/30 09:13:39;;;;;;;39.23;34.30;;;;;;;11.13;63.75;99397.00;4966195;29;20232;-78
2021/10/30 09:16:09;;;;;;;40.20;35.80;;;;;;;11.24;63.40;99381.97;4953965;29;20204;-79
2021/10/30 09:18:41;;;;;;;40.07;35.77;;;;;;;11.25;63.27;99378.22;5039243;23;20236;-80
2021/10/30 09:21:12;;;;;;;40.77;36.23;;;;;;;11.27;63.18;99381.50;5058916;23;20256;-80
2021/10/30 09:24:01;;;;;;;39.17;34.87;;;;;;;11.35;62.89;99376.63;5080731;23;20232;-78
2021/10/30 09:26:31;;;;;;;40.40;35.07;;;;;;;11.39;62.65;99385.03;5092932;23;20255;-78
2021/10/30 09:29:13;;;;;;;41.97;35.03;;;;;;;11.42;62.52;99380.03;5066576;23;20234;-78
2021/10/30 09:31:42;;;;;;;39.00;34.70;;;;;;;11.34;63.07;99382.22;5108853;28;20224;-78
2021/10/30 09:34:09;;;;;;;41.43;35.60;;;;;;;11.32;62.88;99384.31;5115812;22;20319;-78
2021/10/30 09:36:39;;;;;;;41.27;35.87;;;;;;;11.46;62.57;99386.56;5115513;22;20228;-77
2021/10/30 09:39:08;;;;;;;38.50;34.13;;;;;;;11.30;62.88;99379.19;5073736;28;20307;-79
2021/10/30 09:41:44;;;;;;;38.67;34.43;;;;;;;11.45;63.21;99376.88;5117537;22;20647;-78
2021/10/30 09:44:21;;;;;;;40.93;35.33;;;;;;;11.51;62.69;99390.41;5109583;28;20235;-78
2021/10/30 09:46:58;;;;;;;38.13;33.93;;;;;;;11.37;62.64;99387.97;5126618;22;20220;-78
2021/10/30 09:49:30;;;;;;;40.70;34.57;;;;;;;11.37;62.68;99379.91;5090812;22;20231;-80
2021/10/30 09:52:04;;;;;;;39.93;34.40;;;;;;;11.30;62.88;99373.00;5059441;23;20224;-80
2021/10/30 09:54:36;;;;;;;38.27;33.87;;;;;;;11.32;62.54;99379.78;5090538;23;20246;-78
2021/10/30 09:57:06;;;;;;;38.37;34.10;;;;;;;11.44;62.35;99369.06;5104079;23;20239;-79
2021/10/30 09:59:42;;;;;;;40.87;33.80;;;;;;;11.47;63.05;99369.44;5088691;22;20277;-77
2021/10/30 10:02:09;;;;;;;43.80;35.73;;;;;;;11.47;62.43;99363.25;5033495;28;20205;-80
2021/10/30 10:04:37;;;;;;;41.67;35.13;;;;;;;11.46;62.39;99378.53;5093575;23;20243;-80
2021/10/30 10:07:07;;;;;;;39.93;34.80;;;;;;;11.57;62.13;99366.16;5097314;23;20224;-80
2021/10/30 10:10:01;;;;;;;41.53;34.73;;;;;;;11.61;62.36;99364.66;5123842;22;20245;-79
2021/10/30 10:12:43;;;;;;;40.40;34.63;;;;;;;11.57;62.70;99366.16;5104692;28;20311;-80
2021/10/30 10:15:30;;;;;;;40.50;35.00;;;;;;;11.51;62.29;99364.41;5092603;28;20237;-80
2021/10/30 10:17:58;;;;;;;44.07;34.57;;;;;;;11.52;62.37;99354.50;5076559;28;20189;-80
2021/10/30 10:20:48;;;;;;;42.27;36.17;;;;;;;11.60;62.33;99354.16;5091125;28;20191;-81
2021/10/30 10:23:19;;;;;;;39.60;35.10;;;;;;;11.77;62.03;99358.63;5099446;23;20540;-80
2021/10/30 10:26:01;;;;;;;40.23;34.47;;;;;;;11.81;61.75;99353.59;5096603;23;20239;-79
2021/10/30 10:28:33;;;;;;;42.10;34.73;;;;;;;11.83;61.78;99346.94;5114297;23;20226;-80
2021/10/30 10:31:23;;;;;;;45.17;36.00;;;;;;;11.90;61.10;99344.13;5107720;28;20235;-80
2021/10/30 10:34:09;;;;;;;40.40;34.97;;;;;;;11.95;61.49;99343.41;5109927;28;20231;-81
2021/10/30 10:36:37;;;;;;;39.43;35.17;;;;;;;12.05;61.07;99339.09;5115023;23;20232;-80
2021/10/30 10:39:05;;;;;;;40.63;34.50;;;;;;;12.21;60.43;99341.06;5091692;28;20211;-80
2021/10/30 10:41:41;;;;;;;37.67;33.57;;;;;;;12.30;60.12;99341.50;5117018;22;20226;-80
2021/10/30 10:44:30;;;;;;;37.87;32.97;;;;;;;12.42;59.94;99336.91;5117799;23;20246;-79
2021/10/30 10:47:18;;;;;;;38.63;34.37;;;;;;;12.52;59.51;99334.44;5127606;22;20229;-79
2021/10/30 10:50:05;;;;;;;39.47;35.17;;;;;;;12.67;58.93;99312.41;5109511;22;20282;-80
2021/10/30 10:52:35;;;;;;;38.93;34.37;;;;;;;12.83;58.70;99322.38;5112259;22;20303;-79
2021/10/30 10:55:07;;;;;;;40.03;34.77;;;;;;;12.89;58.62;99307.97;5064986;23;20321;-79
2021/10/30 10:57:45;;;;;;;36.50;32.53;;;;;;;12.92;58.29;99306.69;5058972;23;20256;-79
2021/10/30 11:00:27;;;;;;;39.80;33.87;;;;;;;12.93;58.02;99295.66;5090477;22;20228;-80
2021/10/30 11:02:56;;;;;;;36.03;31.17;;;;;;;13.12;57.30;99296.28;5100167;22;20216;-79
2021/10/30 11:05:29;;;;;;;36.63;32.77;;;;;;;13.11;57.01;99297.38;5077529;28;20208;-79
2021/10/30 11:08:34;;;;;;;37.00;32.90;;;;;;;13.09;57.16;99286.81;5146067;22;20236;-79
2021/10/30 11:11:17;;;;;;;36.57;32.37;;;;;;;13.17;57.15;99283.72;5108217;28;20284;-79
2021/10/30 11:14:02;;;;;;;36.97;32.97;;;;;;;13.26;56.73;99284.13;5111381;28;20231;-80
2021/10/30 11:16:49;;;;;;;37.10;33.20;;;;;;;13.19;57.23;99283.50;5108476;28;20238;-80
2021/10/30 11:19:38;;;;;;;36.33;32.43;;;;;;;13.24;56.97;99272.81;5100879;23;20223;-80
2021/10/30 11:22:24;;;;;;;36.13;32.30;;;;;;;13.34;56.53;99275.69;5104040;28;20226;-83
2021/10/30 11:24:56;;;;;;;37.20;33.40;;;;;;;13.48;55.74;99270.75;5100013;28;20216;-79
2021/10/30 11:27:24;;;;;;;37.00;32.07;;;;;;;13.54;56.12;99270.56;5108666;28;20296;-81
2021/10/30 11:29:56;;;;;;;36.93;33.13;;;;;;;13.58;55.97;99271.72;5116060;22;20251;-80
2021/10/30 11:32:34;;;;;;;36.57;32.67;;;;;;;13.67;55.56;99270.22;5089451;28;20243;-81
2021/10/30 11:35:15;;;;;;;39.13;32.87;;;;;;;13.79;55.30;99285.47;5109757;28;20303;-80
2021/10/30 11:37:46;;;;;;;36.63;32.83;;;;;;;13.81;55.13;99281.44;5111371;28;20186;-79
2021/10/30 11:40:17;;;;;;;36.90;33.07;;;;;;;13.87;55.46;99260.78;5113152;28;20249;-79
2021/10/30 11:42:56;;;;;;;35.80;32.10;;;;;;;14.05;55.17;99257.78;5112700;28;20186;-79
2021/10/30 11:45:23;;;;;;;35.27;31.53;;;;;;;14.14;54.41;99244.72;5111393;23;20617;-79
2021/10/30 11:47:53;;;;;;;35.00;31.30;;;;;;;14.26;53.86;99254.28;5086716;28;20255;-79
2021/10/30 11:50:20;;;;;;;33.27;29.67;;;;;;;14.26;53.43;99237.28;5106631;28;21128;-79
2021/10/30 11:52:50;;;;;;;34.50;30.80;;;;;;;14.28;53.32;99248.63;5107820;28;20283;-79
2021/10/30 11:55:21;;;;;;;33.03;29.63;;;;;;;14.39;53.18;99255.78;5106308;28;20295;-79
2021/10/30 11:58:11;;;;;;;33.17;29.83;;;;;;;14.60;52.75;99254.13;5107351;28;20220;-79
2021/10/30 12:00:48;;;;;;;32.13;28.77;;;;;;;14.68;51.70;99242.88;5117111;22;20228;-79
2021/10/30 12:03:40;;;;;;;30.90;27.57;;;;;;;14.71;51.57;99239.66;5117699;22;20620;-79
2021/10/30 12:06:25;;;;;;;29.50;26.33;;;;;;;14.80;50.11;99243.50;5087092;28;20538;-80
2021/10/30 12:09:01;;;;;;;26.60;23.83;;;;;;;14.75;49.08;99233.50;5176785;23;20238;-80